WetterOnline ( https://www.wetteronline.de )

Wetter aktuell Gießen

Aktuelles Wetter: Gießen (195m)

6-stündlich | Neueste Meldungen
Ortszeit Temperatur Wetter
Di, 06.12. 19:00 3.2° C bedeckt
Di, 06.12. 13:00 3.9° C bewölkt
Di, 06.12. 7:00 1.6° C Sprühregen
Di, 06.12. 1:00 2.2° C bedeckt
Mo, 05.12. 19:00 2.5° C bewölkt
Mo, 05.12. 13:00 2.9° C bedeckt
Mo, 05.12. 7:00 0.6° C bedeckt
Mo, 05.12. 1:00 1.6° C leichter Regen
Ortszeit Temperatur Wetter
Di, 06.12. 20:00 1.6° C fast wolkenlos
Di, 06.12. 19:50 1.6° C fast wolkenlos
Di, 06.12. 19:40 2.2° C leicht bewölkt
Di, 06.12. 19:30 3.0° C bewölkt
Di, 06.12. 19:20 3.0° C bewölkt
Di, 06.12. 19:10 3.2° C bedeckt
Di, 06.12. 19:00 3.2° C bedeckt
Di, 06.12. 18:30 3.4° C bedeckt
Di, 06.12. 18:00 3.2° C bewölkt
Di, 06.12. 17:30 3.3° C bewölkt
Di, 06.12. 17:00 3.6° C bedeckt
Ortszeit Relative Feuchte Sichtweite
Di, 06.12. 19:00 88% 24 km
Di, 06.12. 13:00 85% 60 km
Di, 06.12. 7:00 95% 20 km
Di, 06.12. 1:00 94% 28 km
Mo, 05.12. 19:00 99% 3.8 km
Mo, 05.12. 13:00 93% 17 km
Mo, 05.12. 7:00 99% 3.3 km
Mo, 05.12. 1:00 97% 5.0 km
Ortszeit Relative Feuchte Sichtweite
Di, 06.12. 20:00 89% 25 km
Di, 06.12. 19:50 89% -
Di, 06.12. 19:40 88% -
Di, 06.12. 19:30 87% 27 km
Di, 06.12. 19:20 87% -
Di, 06.12. 19:10 87% -
Di, 06.12. 19:00 88% 24 km
Di, 06.12. 18:30 87% 27 km
Di, 06.12. 18:00 89% 28 km
Di, 06.12. 17:30 89% 29 km
Di, 06.12. 17:00 86% 40 km
Ortszeit Niederschlagsmenge Niederschlagsart
Di, 06.12. 19:00 0.1 l/m2 in 12 Std. Sprühregen
Di, 06.12. 13:00 0.1 l/m2 in 6 Std. Sprühregen
Di, 06.12. 7:00 0.1 l/m2 in 12 Std. Regen
Di, 06.12. 1:00 0.0 l/m2 in 6 Std. -
Mo, 05.12. 19:00 0.1 l/m2 in 12 Std. Regen
Mo, 05.12. 13:00 0.0 l/m2 in 6 Std. -
Mo, 05.12. 7:00 4 l/m2 in 12 Std. Schnee, Regen
Mo, 05.12. 1:00 0.4 l/m2 in 6 Std. Regen, Niederschlag
Ortszeit Niederschlagsmenge Niederschlagsart
Di, 06.12. 20:00 0.0 l/m2 in 1 Std. -
Di, 06.12. 19:50 keine Meldung -
Di, 06.12. 19:40 keine Meldung -
Di, 06.12. 19:30 0.0 l/m2 in 30 Min -
Di, 06.12. 19:20 keine Meldung -
Di, 06.12. 19:10 keine Meldung -
Di, 06.12. 19:00 0.0 l/m2 in 1 Std. Sprühregen
Di, 06.12. 18:30 0.0 l/m2 in 30 Min -
Di, 06.12. 18:00 <0.05 l/m2 in 1 Std. Sprühregen
Di, 06.12. 17:30 <0.05 l/m2 in 30 Min Schnee
Di, 06.12. 17:00 0.0 l/m2 in 1 Std. -
Ortszeit Stärke Spitze Richtung
km/h Bft. km/h Grad Sektor
Di, 06.12. 19:00 7 2 18 270° W
Di, 06.12. 13:00 9 2 17 250° W
Di, 06.12. 7:00 9 2 20 240° SW
Di, 06.12. 1:00 11 2 14 220° SW
Mo, 05.12. 19:00 9 2 19 230° SW
Mo, 05.12. 13:00 9 2 15 220° SW
Mo, 05.12. 7:00 4 1 22 190° S
Mo, 05.12. 1:00 11 2 32 20° N
Ortszeit Stärke Spitze Richtung
km/h Bft. km/h Grad Sektor
Di, 06.12. 20:00 11 2 25 230° SW
Di, 06.12. 19:50 11 2 - 230° SW
Di, 06.12. 19:40 11 2 - 260° W
Di, 06.12. 19:30 15 3 24 270° W
Di, 06.12. 19:20 15 3 - 270° W
Di, 06.12. 19:10 11 2 - 280° W
Di, 06.12. 19:00 7 2 14 270° W
Di, 06.12. 18:30 11 2 14 270° W
Di, 06.12. 18:00 7 2 18 240° SW
Di, 06.12. 17:30 13 3 17 230° SW
Di, 06.12. 17:00 9 2 15 240° SW
Ortszeit Untergrenze Bedeckung Gattung
total tief tief mittel hoch
Di, 06.12. 19:00 1470 m 8/8 8/8 - - -
Di, 06.12. 13:00 420 m 7/8 7/8 - - -
Di, 06.12. 7:00 270 m 8/8 8/8 - - -
Di, 06.12. 1:00 270 m 8/8 8/8 - - -
Mo, 05.12. 19:00 120 m 7/8 7/8 - - -
Mo, 05.12. 13:00 240 m 8/8 8/8 - - -
Mo, 05.12. 7:00 150 m 8/8 8/8 - - -
Mo, 05.12. 1:00 150 m 8/8 8/8 - - -
Ortszeit Bedeckungsgrad in Achtel und Wolkenuntergrenze
Di, 06.12. 20:00 1(1470m)
Di, 06.12. 19:50 1(1470m)
Di, 06.12. 19:40 3
Di, 06.12. 19:30 7(1470m)
Di, 06.12. 19:20 7(1470m)
Di, 06.12. 19:10 8
Di, 06.12. 19:00 8(1470m)
Di, 06.12. 18:30 8(1350m)
Di, 06.12. 18:00 3(360m) 7(1380m)
Di, 06.12. 17:30 7(1380m)
Di, 06.12. 17:00 5(390m) 8(1380m)
Ortszeit Luftdruck NN (hPa) Tendenz (hPa in 3 Std.)
Di, 06.12. 19:00 1019 - 0,1
Di, 06.12. 13:00 1019 - 0,3
Di, 06.12. 7:00 1019 - 0,5
Di, 06.12. 1:00 1020 - 0,5
Mo, 05.12. 19:00 1020 + 0,5
Mo, 05.12. 13:00 1019 + 0,1
Mo, 05.12. 7:00 1018 + 0,7
Mo, 05.12. 1:00 1016 + 0,6
Ortszeit Luftdruck NN (hPa) Tendenz (hPa in 3 Std.)
Di, 06.12. 20:00 1019 + 0,1
Di, 06.12. 19:50 1019 keine Meldung
Di, 06.12. 19:40 1019 keine Meldung
Di, 06.12. 19:30 1019 + 0,1
Di, 06.12. 19:20 1019 keine Meldung
Di, 06.12. 19:10 1019 keine Meldung
Di, 06.12. 19:00 1019 - 0,1
Di, 06.12. 18:30 1018 - 0,2
Di, 06.12. 18:00 1019 - 0,2
Di, 06.12. 17:30 1019 0,0
Di, 06.12. 17:00 1018 - 0,2
Ortszeit Schneehöhe (cm)
Di, 06.12. 19:00 0
Di, 06.12. 13:00 0
Di, 06.12. 7:00 0
Di, 06.12. 1:00 0
Mo, 05.12. 19:00 0
Mo, 05.12. 13:00 0
Mo, 05.12. 7:00 0
Mo, 05.12. 1:00 0
Ortszeit Schneehöhe (cm)
Di, 06.12. 20:00 0
Di, 06.12. 19:50 0
Di, 06.12. 19:40 0
Di, 06.12. 19:30 0
Di, 06.12. 19:20 0
Di, 06.12. 19:10 0
Di, 06.12. 19:00 0
Di, 06.12. 18:30 0
Di, 06.12. 18:00 0
Di, 06.12. 17:30 0
Di, 06.12. 17:00 0
Link zu dieser Seite / Seite empfehlen

Das Wetter in ...